Antonios — SY8410 — position and weather

sailwx.info

Track history (hours):
 
Tides and Currents Weather Stations Pressure Air Temp Water Temp Dewpoint Dewpoint Depression Visibility Wind Speed Wind Dir Waves Ship Positions

Antonios

Last reported at 2014-Sep-13 03:15 UTC. Time now 2014-Sep-20 22:10 UTC.
Position N 36°57' E 027°01'.

Length 57 m; draft 2.9 m.

Type: Tanker. MMSI: 239191300.

Date/timePositionNaut miles runAvg speedWind from/ knotsBaromVisibWave heightAir tempDewpointWater temp
2014-Sep-13 03:15N 36°57' E 027°01'25 0.6
2014-Sep-11 12:21N 37°03' E 026°30'810.5
2014-Sep-11 11:33N 37°04' E 026°20'1010.1
2014-Sep-11 10:33N 37°06' E 026°07'1010.3
2014-Sep-11 09:33N 37°09' E 025°55'1110.6
2014-Sep-11 08:33N 37°11' E 025°42'1010.1
2014-Sep-11 07:33N 37°14' E 025°29'9 9.2
2014-Sep-11 06:33N 37°16' E 025°18'9 9.5
2014-Sep-11 05:33N 37°18' E 025°07'1010.0
2014-Sep-11 04:33N 37°20' E 024°54'10 9.9
2014-Sep-11 03:33N 37°23' E 024°42'10 9.7
2014-Sep-11 02:33N 37°27' E 024°32'10 9.9
2014-Sep-11 01:32N 37°31' E 024°19'3010.1
2014-Sep-10 22:32N 37°40' E 023°43'1010.1
2014-Sep-10 21:33N 37°48' E 023°37'1010.2
2014-Sep-10 20:33N 37°51' E 023°24'1010.3
2014-Sep-10 19:33N 37°54' E 023°12'6 0.7
2014-Sep-10 11:32N 37°55' E 023°05'12 4.0
2014-Sep-10 08:33N 37°51' E 023°19'1110.6
2014-Sep-10 07:33N 37°49' E 023°32'10 9.6
2014-Sep-10 06:33N 37°44' E 023°42'2210.1
2014-Sep-10 04:23N 37°33' E 024°07'910.3
2014-Sep-10 03:31N 37°30' E 024°17'1010.1
2014-Sep-10 02:33N 37°29' E 024°29'1010.1
2014-Sep-10 01:33N 37°24' E 024°41'1010.5
2014-Sep-10 00:33N 37°20' E 024°53'1110.5
2014-Sep-09 23:33N 37°19' E 025°06'1010.1
2014-Sep-09 22:33N 37°17' E 025°18'1010.3
2014-Sep-09 21:33N 37°15' E 025°31'9 9.2
2014-Sep-09 20:33N 37°14' E 025°42'8 7.7
2014-Sep-09 19:33N 37°10' E 025°51'8 8.3
2014-Sep-09 18:33N 37°08' E 026°01'9 8.7
2014-Sep-09 17:33N 37°06' E 026°12'9 9.2
2014-Sep-09 16:33N 37°04' E 026°23'  
Track history (hours):
 
Tides and Currents Weather Stations Pressure Air Temp Water Temp Dewpoint Dewpoint Depression Visibility Wind Speed Wind Dir Waves Ship Positions

Antonios

Last reported at 2014-Sep-13 03:15 UTC. Time now 2014-Sep-20 22:10 UTC.
Position N 36°57' E 027°01'.

Length 57 m; draft 2.9 m.

Type: Tanker. MMSI: 239191300.

Date/timePositionNaut miles runAvg speedWind from/ knotsBaromVisibWave heightAir tempDewpointWater temp
2014-Sep-13 03:15N 36°57' E 027°01'25 0.6
2014-Sep-11 12:21N 37°03' E 026°30'810.5
2014-Sep-11 11:33N 37°04' E 026°20'1010.1
2014-Sep-11 10:33N 37°06' E 026°07'1010.3
2014-Sep-11 09:33N 37°09' E 025°55'1110.6
2014-Sep-11 08:33N 37°11' E 025°42'1010.1
2014-Sep-11 07:33N 37°14' E 025°29'9 9.2
2014-Sep-11 06:33N 37°16' E 025°18'9 9.5
2014-Sep-11 05:33N 37°18' E 025°07'1010.0
2014-Sep-11 04:33N 37°20' E 024°54'10 9.9
2014-Sep-11 03:33N 37°23' E 024°42'10 9.7
2014-Sep-11 02:33N 37°27' E 024°32'10 9.9
2014-Sep-11 01:32N 37°31' E 024°19'3010.1
2014-Sep-10 22:32N 37°40' E 023°43'1010.1
2014-Sep-10 21:33N 37°48' E 023°37'1010.2
2014-Sep-10 20:33N 37°51' E 023°24'1010.3
2014-Sep-10 19:33N 37°54' E 023°12'6 0.7
2014-Sep-10 11:32N 37°55' E 023°05'12 4.0
2014-Sep-10 08:33N 37°51' E 023°19'1110.6
2014-Sep-10 07:33N 37°49' E 023°32'10 9.6
2014-Sep-10 06:33N 37°44' E 023°42'2210.1
2014-Sep-10 04:23N 37°33' E 024°07'910.3
2014-Sep-10 03:31N 37°30' E 024°17'1010.1
2014-Sep-10 02:33N 37°29' E 024°29'1010.1
2014-Sep-10 01:33N 37°24' E 024°41'1010.5
2014-Sep-10 00:33N 37°20' E 024°53'1110.5
2014-Sep-09 23:33N 37°19' E 025°06'1010.1
2014-Sep-09 22:33N 37°17' E 025°18'1010.3
2014-Sep-09 21:33N 37°15' E 025°31'9 9.2
2014-Sep-09 20:33N 37°14' E 025°42'8 7.7
2014-Sep-09 19:33N 37°10' E 025°51'8 8.3
2014-Sep-09 18:33N 37°08' E 026°01'9 8.7
2014-Sep-09 17:33N 37°06' E 026°12'9 9.2
2014-Sep-09 16:33N 37°04' E 026°23'  

Dump ship's entire track history